| time (UTC) | temp C | wind direction | speed KPH | gust KPH | rain 1hr cm | rain 24hr cm | rain mn cm | humidity % | barometer mb |
| 20260507104555 | 12 | 60 | 8.0 | 20.9 | 0.00 | 0.00 | 0.00 | 81 | 1019.9 |
| 20260507103055 | 12 | 13 | 8.0 | 20.9 | 0.00 | 0.00 | 0.00 | 81 | 1020.2 |
| 20260507101550 | 12 | 78 | 6.4 | 14.5 | 0.00 | 0.00 | 0.00 | 81 | 1020.5 |
| 20260507100047 | 12 | 52 | 3.2 | 14.5 | 0.00 | 0.00 | 0.00 | 81 | 1020.4 |
| 20260507094547 | 12 | 41 | 6.4 | 14.5 | 0.00 | 0.00 | 0.00 | 81 | 1020.3 |
| 20260507093043 | 12 | 54 | 6.4 | 17.7 | 0.00 | 0.00 | 0.00 | 81 | 1019.7 |
| 20260507091544 | 12 | 42 | 9.7 | 17.7 | 0.00 | 0.00 | 0.00 | 81 | 1019.6 |
| 20260507090028 | 12 | 34 | 4.8 | 16.1 | 0.00 | 0.00 | 0.00 | 80 | 1019.7 |
| 20260507084534 | 12 | 51 | 4.8 | 14.5 | 0.00 | 0.00 | 0.00 | 80 | 1019.5 |
| 20260507083024 | 12 | 5 | 6.4 | 16.1 | 0.00 | 0.00 | 0.00 | 80 | 1019.4 |
| 20260507081533 | 13 | 42 | 4.8 | 12.9 | 0.00 | 0.00 | 0.00 | 79 | 1019.3 |
| 20260507080018 | 13 | 15 | 6.4 | 14.5 | 0.00 | 0.00 | 0.00 | 79 | 1018.9 |
| 20260507074516 | 13 | 59 | 3.2 | 11.3 | 0.00 | 0.00 | 0.00 | 79 | 1018.8 |
| 20260507073013 | 13 | 33 | 4.8 | 11.3 | 0.00 | 0.00 | 0.00 | 79 | 1018.5 |
| 20260507071511 | 13 | 66 | 4.8 | 11.3 | 0.00 | 0.00 | 0.00 | 79 | 1018.5 |
| 20260507070106 | 13 | 46 | 4.8 | 9.7 | 0.00 | 0.00 | 0.00 | 80 | 1018.3 |
| 20260507064557 | 13 | 34 | 9.7 | 16.1 | 0.00 | 0.00 | 0.00 | 80 | 1017.7 |
| 20260507063053 | 13 | 355 | 6.4 | 16.1 | 0.00 | 0.00 | 0.00 | 81 | 1017.7 |
| 20260507061552 | 13 | 56 | 3.2 | 6.4 | 0.00 | 0.00 | 0.00 | 82 | 1017.6 |
| 20260507060058 | 13 | 22 | 3.2 | 6.4 | 0.00 | 0.00 | 0.00 | 82 | 1017.7 |
| 20260507054550 | 13 | 26 | 1.6 | 3.2 | 0.00 | 0.00 | 0.00 | 82 | 1017.5 |
| 20260507053048 | 13 | 65 | 1.6 | 4.8 | 0.00 | 0.00 | 0.00 | 82 | 1017.5 |
| 20260507051547 | 13 | 59 | 1.6 | 4.8 | 0.00 | 0.00 | 0.00 | 82 | 1017.4 |
| 20260507051323 | 12 | 35 | 3.2 | 3.2 | 0.00 | 0.00 | 0.00 | ||
| 20260507050035 | 13 | 68 | 0.0 | 4.8 | 0.00 | 0.00 | 0.00 | 81 | 1017.3 |
| 20260507044533 | 14 | 57 | 1.6 | 6.4 | 0.00 | 0.00 | 0.00 | 80 | 1017.2 |
| 20260507043318 | 13 | 55 | 6.4 | 4.8 | 0.00 | 0.00 | 0.00 | ||
| 20260507043030 | 14 | 51 | 3.2 | 8.0 | 0.00 | 0.00 | 0.00 | 80 | 1017.0 |
| 20260507041527 | 14 | 67 | 3.2 | 8.0 | 0.00 | 0.00 | 0.00 | 81 | 1016.8 |
| 20260507040026 | 14 | 79 | 4.8 | 9.7 | 0.00 | 0.00 | 0.00 | 82 | 1016.4 |
| 20260507035813 | 13 | 87 | 6.4 | 8.0 | 0.00 | 0.00 | 0.00 | ||
| 20260507034531 | 14 | 88 | 1.6 | 8.0 | 0.00 | 0.00 | 0.00 | 82 | 1016.2 |
| 20260507033019 | 14 | 92 | 1.6 | 4.8 | 0.00 | 0.00 | 0.00 | 81 | 1015.8 |
| 20260507032311 | 13 | 25 | 4.8 | 4.8 | 0.00 | 0.00 | 0.00 | ||
| 20260507031518 | 15 | 57 | 1.6 | 4.8 | 0.00 | 0.00 | 0.00 | 81 | 1015.6 |
| 20260507030006 | 15 | 65 | 1.6 | 4.8 | 0.00 | 0.00 | 0.00 | 80 | 1015.3 |
| 20260507024559 | 15 | 72 | 3.2 | 6.4 | 0.00 | 0.00 | 0.00 | 79 | 1015.1 |
| 20260507023109 | 16 | 115 | 1.6 | 6.4 | 0.00 | 0.00 | 0.00 | 78 | 1014.9 |
| 20260507021556 | 16 | 121 | 1.6 | 6.4 | 0.00 | 0.00 | 0.00 | 76 | 1014.7 |
| 20260507014557 | 17 | 112 | 3.2 | 9.7 | 0.00 | 0.00 | 0.00 | 73 | 1014.3 |
| 20260507013057 | 17 | 92 | 3.2 | 8.0 | 0.00 | 0.00 | 0.00 | 71 | 1014.3 |
| 20260507011554 | 18 | 111 | 4.8 | 12.9 | 0.00 | 0.00 | 0.00 | 69 | 1014.0 |
| 20260507010044 | 18 | 78 | 4.8 | 11.3 | 0.00 | 0.00 | 0.00 | 67 | 1013.7 |
| 20260507004543 | 19 | 111 | 6.4 | 11.3 | 0.00 | 0.00 | 0.00 | 67 | 1013.5 |
| 20260507003040 | 20 | 94 | 6.4 | 12.9 | 0.00 | 0.00 | 0.00 | 64 | 1013.4 |
| 20260507001605 | 20 | 72 | 4.8 | 11.3 | 0.00 | 0.00 | 0.00 | 59 | 1013.5 |
| 20260507000042 | 21 | 73 | 6.4 | 12.9 | 0.00 | 0.00 | 0.00 | 58 | 1013.5 |
| 20260506234540 | 21 | 55 | 4.8 | 14.5 | 0.00 | 0.00 | 0.00 | 59 | 1013.3 |
| 20260506233038 | 21 | 78 | 4.8 | 16.1 | 0.00 | 0.00 | 0.00 | 57 | 1013.3 |
| 20260506231537 | 21 | 56 | 3.2 | 9.7 | 0.00 | 0.00 | 0.00 | 59 | 1013.1 |
| 20260506230035 | 21 | 348 | 6.4 | 17.7 | 0.00 | 0.00 | 0.00 | 58 | 1013.0 |
| 20260506224524 | 21 | 59 | 3.2 | 14.5 | 0.00 | 0.00 | 0.00 | 59 | 1012.8 |
| 20260506223029 | 21 | 59 | 6.4 | 14.5 | 0.00 | 0.00 | 0.00 | 59 | 1012.8 |
| 20260506221522 | 21 | 90 | 4.8 | 12.9 | 0.00 | 0.00 | 0.00 | 59 | 1012.8 |
| 20260506220023 | 20 | 328 | 8.0 | 14.5 | 0.00 | 0.00 | 0.00 | 60 | 1012.8 |
| 20260506214522 | 20 | 11 | 6.4 | 12.9 | 0.00 | 0.00 | 0.00 | 64 | 1012.8 |
| 20260506213021 | 20 | 40 | 3.2 | 12.9 | 0.00 | 0.00 | 0.00 | 60 | 1013.2 |
| 20260506211622 | 20 | 61 | 8.0 | 12.9 | 0.00 | 0.00 | 0.00 | 63 | 1013.1 |
| 20260506210010 | 19 | 58 | 3.2 | 12.9 | 0.00 | 0.00 | 0.00 | 63 | 1013.1 |
| 20260506204507 | 18 | 355 | 6.4 | 16.1 | 0.00 | 0.00 | 0.00 | 67 | 1013.3 |
| 20260506203010 | 18 | 84 | 8.0 | 16.1 | 0.00 | 0.00 | 0.00 | 67 | 1013.6 |
| 20260506201510 | 17 | 113 | 0.0 | 14.5 | 0.00 | 0.00 | 0.00 | 69 | 1013.9 |
| 20260506200005 | 17 | 26 | 4.8 | 12.9 | 0.00 | 0.00 | 0.00 | 71 | 1014.1 |
| 20260506194507 | 16 | 11 | 8.0 | 14.5 | 0.00 | 0.00 | 0.00 | 71 | 1014.1 |
| 20260506193007 | 16 | 22 | 6.4 | 12.9 | 0.00 | 0.00 | 0.00 | 73 | 1014.5 |
| 20260506191509 | 16 | 19 | 4.8 | 12.9 | 0.00 | 0.00 | 0.00 | 74 | 1014.5 |
| 20260506190054 | 16 | 14 | 6.4 | 17.7 | 0.00 | 0.00 | 0.00 | 73 | 1014.6 |
| 20260506184553 | 16 | 19 | 6.4 | 14.5 | 0.00 | 0.00 | 0.00 | 73 | 1014.6 |
| 20260506183058 | 15 | 98 | 6.4 | 14.5 | 0.00 | 0.00 | 0.00 | 73 | 1014.8 |
| 20260506181555 | 15 | 37 | 4.8 | 17.7 | 0.00 | 0.00 | 0.00 | 73 | 1014.8 |
| 20260506180150 | 15 | 15 | 9.7 | 20.9 | 0.00 | 0.00 | 0.00 | 73 | 1015.0 |
| 20260506174548 | 15 | 17 | 9.7 | 19.3 | 0.00 | 0.00 | 0.00 | 75 | 1015.0 |
| 20260506173054 | 15 | 349 | 12.9 | 19.3 | 0.00 | 0.00 | 0.00 | 76 | 1015.2 |
| 20260506171549 | 14 | 28 | 8.0 | 19.3 | 0.00 | 0.00 | 0.00 | 76 | 1015.2 |
| 20260506170043 | 14 | 20 | 12.9 | 19.3 | 0.00 | 0.00 | 0.00 | 77 | 1014.8 |
| 20260506164549 | 13 | 355 | 8.0 | 16.1 | 0.00 | 0.00 | 0.00 | 78 | 1014.9 |
| 20260506163035 | 13 | 22 | 11.3 | 19.3 | 0.00 | 0.00 | 0.00 | 78 | 1014.8 |
| 20260506161530 | 13 | 348 | 9.7 | 20.9 | 0.00 | 0.00 | 0.00 | 79 | 1014.4 |
| 20260506160033 | 13 | 336 | 14.5 | 22.5 | 0.00 | 0.00 | 0.00 | 79 | 1014.4 |
| 20260506154529 | 12 | 24 | 14.5 | 24.1 | 0.00 | 0.00 | 0.00 | 81 | 1013.8 |
| 20260506153027 | 12 | 325 | 12.9 | 22.5 | 0.00 | 0.00 | 0.00 | 82 | 1013.9 |
| 20260506151526 | 12 | 40 | 11.3 | 19.3 | 0.00 | 0.00 | 0.00 | 83 | 1013.5 |
| 20260506150013 | 11 | 325 | 17.7 | 24.1 | 0.00 | 0.00 | 0.00 | 83 | 1013.1 |
| 20260506144522 | 11 | 350 | 12.9 | 22.5 | 0.00 | 0.00 | 0.00 | 84 | 1013.6 |
| 20260506143011 | 11 | 28 | 14.5 | 22.5 | 0.00 | 0.00 | 0.00 | 84 | 1012.9 |
| 20260506141522 | 11 | 22 | 16.1 | 27.4 | 0.00 | 0.00 | 0.00 | 84 | 1012.4 |
| 20260506140007 | 11 | 56 | 8.0 | 17.7 | 0.00 | 0.00 | 0.00 | 84 | 1012.9 |
| 20260506134505 | 11 | 329 | 6.4 | 12.9 | 0.00 | 0.00 | 0.00 | 84 | 1013.2 |
| 20260506133003 | 11 | 33 | 9.7 | 22.5 | 0.00 | 0.00 | 0.00 | 84 | 1011.8 |
| 20260506131502 | 11 | 74 | 14.5 | 22.5 | 0.00 | 0.00 | 0.00 | 83 | 1011.2 |
| 20260506130040 | 11 | 77 | 8.0 | 16.1 | 0.00 | 0.00 | 0.00 | 82 | 1013.1 |
| 20260506124537 | 12 | 5 | 16.1 | 22.5 | 0.00 | 0.00 | 0.00 | 81 | 1012.1 |
| 20260506123021 | 12 | 331 | 8.0 | 20.9 | 0.00 | 0.00 | 0.00 | 82 | 1012.2 |
| 20260506121517 | 12 | 15 | 8.0 | 20.9 | 0.00 | 0.00 | 0.00 | 82 | 1011.2 |
| 20260506120030 | 12 | 15 | 8.0 | 16.1 | 0.00 | 0.00 | 0.00 | 81 | 1011.8 |
| 20260506114510 | 12 | 50 | 4.8 | 16.1 | 0.00 | 0.00 | 0.00 | 81 | 1011.0 |
| 20260506113008 | 12 | 28 | 6.4 | 16.1 | 0.00 | 0.00 | 0.00 | 82 | 1010.9 |
| 20260506111506 | 12 | 360 | 6.4 | 12.9 | 0.00 | 0.00 | 0.00 | 82 | 1010.8 |
| 20260506110006 | 12 | 19 | 6.4 | 16.1 | 0.00 | 0.00 | 0.00 | 81 | 1010.2 |